Time;durP1;ratioP1;P1;durP2;ratioP2;P2;SDS_P1;SDS_P2;PMS_P1;PMS_P2;Temp;Humidity;BMP_temperature;BMP_pressure;BME280_temperature;BME280_humidity;BME280_pressure;Samples;Min_cycle;Max_cycle;Signal;HPM_P1;HPM_P2
2021/09/20 00:02:00;;;;;;;35.80;22.17;;;;;;;;;;5073087;28;20020;-56
2021/09/20 00:04:26;;;;;;;22.05;14.30;;;;;;;;;;5072972;28;20037;-55
2021/09/20 00:06:52;;;;;;;13.65;8.98;;;;;;;;;;5073013;28;20380;-55
2021/09/20 00:09:18;;;;;;;33.72;20.55;;;;;;;;;;5071961;28;20024;-54
2021/09/20 00:11:44;;;;;;;54.67;30.98;;;;;;;;;;5072988;28;20042;-55
2021/09/20 00:14:10;;;;;;;22.63;13.65;;;;;;;;;;5073043;28;20025;-54
2021/09/20 00:16:39;;;;;;;47.58;26.08;;;;;;;;;;5072864;28;20112;-56
2021/09/20 00:19:05;;;;;;;55.28;29.63;;;;;;;;;;5071631;28;20048;-56
2021/09/20 00:21:31;;;;;;;19.20;11.98;;;;;;;;;;5072989;28;20016;-55
2021/09/20 00:23:57;;;;;;;39.20;20.25;;;;;;;;;;5072623;28;20079;-58
2021/09/20 00:26:23;;;;;;;22.15;12.32;;;;;;;;;;5072818;28;20020;-61
2021/09/20 00:28:49;;;;;;;32.40;19.20;;;;;;;;;;5071306;28;20464;-57
2021/09/20 00:31:15;;;;;;;17.48;11.88;;;;;;;;;;5072774;28;20434;-59
2021/09/20 00:33:41;;;;;;;9.52;7.10;;;;;;;;;;5072507;28;20111;-54
2021/09/20 00:36:07;;;;;;;46.55;32.85;;;;;;;;;;5072787;28;20024;-58
2021/09/20 00:38:33;;;;;;;15.13;9.85;;;;;;;;;;5072536;28;20074;-58
2021/09/20 00:41:02;;;;;;;35.83;22.85;;;;;;;;;;5072738;28;20024;-57
2021/09/20 00:43:29;;;;;;;12.30;7.93;;;;;;;;;;5072736;28;20059;-55
2021/09/20 00:45:55;;;;;;;6.68;4.70;;;;;;;;;;5072513;28;20494;-56
2021/09/20 00:48:21;;;;;;;6.13;4.55;;;;;;;;;;5072471;28;20112;-56
2021/09/20 00:50:47;;;;;;;16.75;10.35;;;;;;;;;;5072454;28;20028;-55
2021/09/20 00:53:14;;;;;;;26.60;15.95;;;;;;;;;;5072512;28;20024;-59
2021/09/20 00:55:40;;;;;;;8.93;5.38;;;;;;;;;;5072563;28;20017;-57
2021/09/20 00:58:08;;;;;;;7.47;4.15;;;;;;;;;;5072434;28;20428;-59
2021/09/20 01:00:34;;;;;;;5.28;2.90;;;;;;;;;;5072578;28;20430;-58
2021/09/20 01:03:01;;;;;;;5.60;4.25;;;;;;;;;;5072354;28;20029;-55
2021/09/20 01:05:27;;;;;;;5.13;2.88;;;;;;;;;;5072428;28;20021;-57
2021/09/20 01:07:53;;;;;;;4.72;2.95;;;;;;;;;;5072386;28;20037;-58
2021/09/20 01:10:19;;;;;;;3.30;2.97;;;;;;;;;;5072476;28;20036;-58
2021/09/20 01:12:45;;;;;;;4.85;2.97;;;;;;;;;;5072655;28;20048;-61
2021/09/20 01:15:11;;;;;;;5.90;2.75;;;;;;;;;;5072614;28;20159;-51
2021/09/20 01:17:37;;;;;;;6.05;3.03;;;;;;;;;;5072574;28;20074;-59
2021/09/20 01:20:04;;;;;;;5.78;3.10;;;;;;;;;;5073152;28;20021;-62
2021/09/20 01:22:31;;;;;;;2.53;2.33;;;;;;;;;;5076031;28;20032;-60
2021/09/20 01:24:57;;;;;;;4.82;3.45;;;;;;;;;;5075805;28;20045;-60
2021/09/20 01:27:23;;;;;;;3.33;2.92;;;;;;;;;;5076002;28;20353;-59
2021/09/20 01:29:50;;;;;;;8.88;3.65;;;;;;;;;;5075911;28;20048;-61
2021/09/20 01:32:16;;;;;;;6.78;3.00;;;;;;;;;;5075837;28;20030;-58
2021/09/20 01:34:43;;;;;;;4.03;3.20;;;;;;;;;;5075648;28;20111;-61
2021/09/20 01:37:09;;;;;;;5.30;4.38;;;;;;;;;;5074495;28;20028;-57
2021/09/20 01:39:36;;;;;;;7.97;3.92;;;;;;;;;;5075636;28;20376;-60
2021/09/20 01:42:03;;;;;;;6.30;3.22;;;;;;;;;;5075715;28;20024;-54
2021/09/20 01:44:29;;;;;;;8.95;4.97;;;;;;;;;;5075596;28;20024;-56
2021/09/20 01:46:56;;;;;;;13.13;11.70;;;;;;;;;;5075383;28;20032;-60
2021/09/20 01:49:23;;;;;;;12.25;10.00;;;;;;;;;;5075806;28;20024;-59
2021/09/20 01:51:49;;;;;;;6.63;5.90;;;;;;;;;;5075454;28;20433;-60
2021/09/20 01:54:18;;;;;;;9.77;4.28;;;;;;;;;;5075375;28;20034;-58
2021/09/20 01:56:44;;;;;;;4.57;4.10;;;;;;;;;;5075630;28;20020;-59
2021/09/20 01:59:10;;;;;;;4.18;3.72;;;;;;;;;;5075356;28;20102;-60
2021/09/20 02:01:37;;;;;;;7.63;3.58;;;;;;;;;;5075314;28;20473;-57
2021/09/20 02:04:03;;;;;;;10.30;9.20;;;;;;;;;;5075105;28;20047;-56
2021/09/20 02:06:29;;;;;;;11.73;8.50;;;;;;;;;;5075229;28;20025;-59
2021/09/20 02:08:55;;;;;;;6.95;4.88;;;;;;;;;;5075269;28;20039;-52
2021/09/20 02:11:25;;;;;;;8.05;3.85;;;;;;;;;;5073680;28;20028;-58
2021/09/20 02:13:52;;;;;;;4.45;3.60;;;;;;;;;;5075148;28;20036;-58
2021/09/20 02:16:18;;;;;;;5.10;3.40;;;;;;;;;;5074834;28;20017;-56
2021/09/20 02:18:45;;;;;;;3.78;3.25;;;;;;;;;;5074960;28;20051;-60
2021/09/20 02:21:13;;;;;;;4.13;3.53;;;;;;;;;;5074907;28;20082;-61
2021/09/20 02:23:39;;;;;;;3.80;3.40;;;;;;;;;;5074575;28;20041;-61
2021/09/20 02:26:05;;;;;;;4.82;3.53;;;;;;;;;;5074896;28;20068;-59
2021/09/20 02:28:36;;;;;;;4.95;3.70;;;;;;;;;;5074677;28;20341;-59
2021/09/20 02:31:03;;;;;;;6.90;3.15;;;;;;;;;;5074559;28;20016;-56
2021/09/20 02:33:29;;;;;;;5.82;3.30;;;;;;;;;;5072492;28;20075;-57
2021/09/20 02:35:55;;;;;;;3.72;3.33;;;;;;;;;;5074720;28;20020;-60
2021/09/20 02:38:21;;;;;;;3.67;3.28;;;;;;;;;;5074455;28;20094;-61
2021/09/20 02:40:47;;;;;;;4.60;3.40;;;;;;;;;;5074442;28;20111;-55
2021/09/20 02:43:13;;;;;;;4.68;3.13;;;;;;;;;;5074716;28;20024;-59
2021/09/20 02:45:39;;;;;;;6.03;3.42;;;;;;;;;;5073174;28;20019;-60
2021/09/20 02:48:05;;;;;;;5.68;3.58;;;;;;;;;;5074429;28;20444;-63
2021/09/20 02:50:31;;;;;;;6.30;3.30;;;;;;;;;;5074451;28;20414;-63
2021/09/20 02:52:57;;;;;;;4.53;3.70;;;;;;;;;;5074169;28;20439;-60
2021/09/20 02:55:26;;;;;;;4.03;3.55;;;;;;;;;;5074381;28;20028;-60
2021/09/20 02:57:52;;;;;;;5.57;3.60;;;;;;;;;;5074411;28;20121;-60
2021/09/20 03:00:20;;;;;;;5.47;3.60;;;;;;;;;;5074191;28;20070;-60
2021/09/20 03:02:46;;;;;;;4.60;3.55;;;;;;;;;;5074040;28;20123;-60
2021/09/20 03:05:12;;;;;;;4.65;3.70;;;;;;;;;;5073976;28;20020;-60
2021/09/20 03:07:38;;;;;;;5.40;3.30;;;;;;;;;;5074027;28;20480;-60
2021/09/20 03:10:05;;;;;;;4.38;3.63;;;;;;;;;;5074185;28;20362;-60
2021/09/20 03:12:31;;;;;;;4.85;3.70;;;;;;;;;;5073840;28;20030;-61
2021/09/20 03:14:57;;;;;;;4.72;3.78;;;;;;;;;;5073880;28;20017;-62
2021/09/20 03:17:23;;;;;;;5.03;3.70;;;;;;;;;;5073935;28;20020;-60
2021/09/20 03:19:49;;;;;;;7.35;3.88;;;;;;;;;;5073815;28;20028;-60
2021/09/20 03:22:15;;;;;;;5.80;3.90;;;;;;;;;;5073776;28;20025;-60
2021/09/20 03:24:41;;;;;;;5.10;3.97;;;;;;;;;;5073313;28;20465;-60
2021/09/20 03:27:08;;;;;;;9.48;4.00;;;;;;;;;;5073552;28;20070;-60
2021/09/20 03:29:34;;;;;;;6.22;4.22;;;;;;;;;;5073590;28;20480;-60
2021/09/20 03:32:00;;;;;;;8.75;4.05;;;;;;;;;;5073541;28;20094;-56
2021/09/20 03:34:26;;;;;;;5.45;4.47;;;;;;;;;;5073330;28;20048;-59
2021/09/20 03:36:53;;;;;;;4.65;3.90;;;;;;;;;;5073562;28;20029;-58
2021/09/20 03:39:19;;;;;;;8.38;4.82;;;;;;;;;;5073369;28;20472;-60
2021/09/20 03:41:45;;;;;;;6.55;4.30;;;;;;;;;;5073493;28;20028;-60
2021/09/20 03:44:11;;;;;;;4.93;4.18;;;;;;;;;;5073235;28;20029;-61
2021/09/20 03:46:37;;;;;;;6.97;4.50;;;;;;;;;;5073366;28;20028;-60
2021/09/20 03:49:05;;;;;;;6.53;4.45;;;;;;;;;;5073268;28;20037;-59
2021/09/20 03:51:32;;;;;;;7.43;4.75;;;;;;;;;;5073306;28;20017;-58
2021/09/20 03:53:58;;;;;;;7.00;4.93;;;;;;;;;;5073111;28;20029;-60
2021/09/20 03:56:26;;;;;;;5.32;4.65;;;;;;;;;;5073522;28;20050;-60
2021/09/20 03:58:54;;;;;;;4.75;3.85;;;;;;;;;;5073341;28;20057;-61
2021/09/20 04:01:21;;;;;;;7.35;3.88;;;;;;;;;;5073019;28;20037;-58
2021/09/20 04:03:47;;;;;;;20.90;14.55;;;;;;;;;;5073017;28;20488;-57
2021/09/20 04:06:13;;;;;;;15.57;10.40;;;;;;;;;;5073267;28;20035;-61
2021/09/20 04:08:39;;;;;;;19.63;13.63;;;;;;;;;;5072956;28;20032;-62
2021/09/20 04:11:08;;;;;;;17.30;11.38;;;;;;;;;;5073161;28;20017;-60
2021/09/20 04:13:34;;;;;;;16.40;8.90;;;;;;;;;;5073249;28;20053;-62
2021/09/20 04:16:00;;;;;;;12.18;5.65;;;;;;;;;;5073135;28;20027;-63
2021/09/20 04:18:27;;;;;;;7.80;4.38;;;;;;;;;;5073065;28;20098;-57
2021/09/20 04:20:54;;;;;;;5.50;3.97;;;;;;;;;;5072954;28;20082;-60
2021/09/20 04:23:22;;;;;;;5.93;4.00;;;;;;;;;;5072812;28;20433;-61
2021/09/20 04:25:48;;;;;;;7.30;4.00;;;;;;;;;;5072992;28;20540;-59
2021/09/20 04:28:15;;;;;;;8.32;4.50;;;;;;;;;;5072850;28;20075;-59
2021/09/20 04:30:43;;;;;;;8.55;3.70;;;;;;;;;;5073063;28;20124;-61
2021/09/20 04:33:13;;;;;;;4.80;3.13;;;;;;;;;;5072940;28;20054;-60
2021/09/20 04:35:40;;;;;;;5.40;3.55;;;;;;;;;;5072865;28;20483;-61
2021/09/20 04:38:06;;;;;;;7.50;3.88;;;;;;;;;;5072746;28;20024;-60
2021/09/20 04:40:33;;;;;;;6.97;3.80;;;;;;;;;;5072746;28;20457;-60
2021/09/20 04:42:59;;;;;;;8.50;3.45;;;;;;;;;;5072550;28;20036;-56
2021/09/20 04:45:25;;;;;;;4.30;3.67;;;;;;;;;;5072788;28;20044;-59
2021/09/20 04:47:51;;;;;;;7.75;4.10;;;;;;;;;;5072510;28;20028;-58
2021/09/20 04:50:19;;;;;;;4.43;3.33;;;;;;;;;;5072869;28;20039;-57
2021/09/20 04:52:46;;;;;;;5.07;3.70;;;;;;;;;;5072537;28;20103;-56
2021/09/20 04:55:12;;;;;;;4.50;3.33;;;;;;;;;;5073279;28;20027;-59
2021/09/20 04:57:38;;;;;;;5.18;4.15;;;;;;;;;;5076459;28;20072;-59
2021/09/20 05:00:05;;;;;;;12.18;6.38;;;;;;;;;;5076528;28;20419;-59
2021/09/20 05:02:31;;;;;;;22.35;12.95;;;;;;;;;;5076325;28;20028;-56
2021/09/20 05:04:57;;;;;;;10.88;7.75;;;;;;;;;;5076165;28;20476;-58
2021/09/20 05:07:23;;;;;;;15.13;8.27;;;;;;;;;;5076239;28;20032;-60
2021/09/20 05:09:49;;;;;;;19.67;10.18;;;;;;;;;;5076254;28;20029;-58
2021/09/20 05:12:15;;;;;;;15.63;9.48;;;;;;;;;;5076129;28;20464;-59
2021/09/20 05:14:41;;;;;;;8.63;5.25;;;;;;;;;;5076345;28;20396;-54
2021/09/20 05:17:08;;;;;;;7.28;4.80;;;;;;;;;;5076103;28;20024;-59
2021/09/20 05:19:36;;;;;;;11.65;7.30;;;;;;;;;;5076091;28;20526;-60
2021/09/20 05:22:02;;;;;;;4.22;3.72;;;;;;;;;;5076139;28;20032;-58
2021/09/20 05:24:28;;;;;;;7.45;5.10;;;;;;;;;;5075780;28;20048;-56
2021/09/20 05:26:54;;;;;;;7.13;4.50;;;;;;;;;;5076123;28;20484;-54
2021/09/20 05:29:23;;;;;;;10.85;5.15;;;;;;;;;;5075794;28;20036;-59
2021/09/20 05:31:49;;;;;;;20.73;11.07;;;;;;;;;;5075703;28;20016;-56
2021/09/20 05:34:15;;;;;;;6.35;5.30;;;;;;;;;;5075663;28;20060;-56
2021/09/20 05:36:44;;;;;;;13.75;8.80;;;;;;;;;;5075717;28;20362;-60
2021/09/20 05:39:10;;;;;;;13.40;10.02;;;;;;;;;;5075569;28;20021;-55
2021/09/20 05:41:36;;;;;;;8.13;6.13;;;;;;;;;;5075894;28;20459;-59
2021/09/20 05:44:02;;;;;;;16.10;8.20;;;;;;;;;;5075574;28;20024;-58
2021/09/20 05:46:28;;;;;;;24.63;13.80;;;;;;;;;;5075512;28;20024;-55
2021/09/20 05:48:54;;;;;;;15.40;9.70;;;;;;;;;;5075552;28;20028;-59
2021/09/20 05:51:20;;;;;;;14.65;8.40;;;;;;;;;;5075532;28;20107;-57
2021/09/20 05:53:47;;;;;;;11.05;7.03;;;;;;;;;;5075303;28;20115;-61
2021/09/20 05:56:14;;;;;;;10.38;5.63;;;;;;;;;;5075604;28;20039;-58
2021/09/20 05:58:40;;;;;;;10.35;7.32;;;;;;;;;;5075518;28;20021;-59
2021/09/20 06:01:08;;;;;;;12.98;7.03;;;;;;;;;;5075270;28;20024;-59
2021/09/20 06:03:35;;;;;;;9.63;5.97;;;;;;;;;;5075261;28;20505;-57
2021/09/20 06:06:01;;;;;;;12.90;5.80;;;;;;;;;;5075165;28;20469;-60
2021/09/20 06:08:27;;;;;;;10.82;8.30;;;;;;;;;;5075056;28;20025;-57
2021/09/20 06:10:56;;;;;;;12.18;10.27;;;;;;;;;;5075525;28;20028;-59
2021/09/20 06:13:24;;;;;;;11.55;5.63;;;;;;;;;;5075159;28;20030;-59
2021/09/20 06:15:52;;;;;;;7.60;4.93;;;;;;;;;;5075062;28;20032;-57
2021/09/20 06:18:18;;;;;;;5.93;4.28;;;;;;;;;;5074794;28;20477;-54
2021/09/20 06:20:44;;;;;;;7.68;4.47;;;;;;;;;;5075023;28;20032;-60
2021/09/20 06:23:10;;;;;;;7.00;4.00;;;;;;;;;;5074700;28;20055;-60
2021/09/20 06:25:36;;;;;;;7.40;4.50;;;;;;;;;;5074758;28;20032;-61
2021/09/20 06:28:03;;;;;;;6.57;4.20;;;;;;;;;;5074559;28;20032;-65
2021/09/20 06:30:29;;;;;;;12.35;6.30;;;;;;;;;;5074940;28;20032;-62
2021/09/20 06:32:55;;;;;;;17.17;12.07;;;;;;;;;;5074771;28;20031;-64
2021/09/20 06:35:21;;;;;;;18.95;10.57;;;;;;;;;;5074790;28;20016;-63
2021/09/20 06:37:50;;;;;;;23.45;13.35;;;;;;;;;;5074627;28;20016;-68
2021/09/20 06:40:16;;;;;;;10.60;7.43;;;;;;;;;;5074823;28;20021;-63
2021/09/20 06:42:43;;;;;;;23.42;14.05;;;;;;;;;;5074693;28;20017;-69
2021/09/20 06:45:09;;;;;;;32.45;17.65;;;;;;;;;;5074633;28;20027;-66
2021/09/20 06:47:35;;;;;;;24.30;15.20;;;;;;;;;;5074456;28;20055;-59
2021/09/20 06:50:02;;;;;;;35.80;18.08;;;;;;;;;;5074670;28;20035;-67
2021/09/20 06:52:28;;;;;;;20.77;13.38;;;;;;;;;;5074359;28;20021;-63
2021/09/20 06:54:56;;;;;;;20.48;12.02;;;;;;;;;;5074517;28;20492;-69
2021/09/20 06:57:22;;;;;;;15.50;9.02;;;;;;;;;;5074377;28;20469;-66
2021/09/20 06:59:48;;;;;;;14.43;7.07;;;;;;;;;;5074353;28;20078;-61
2021/09/20 07:02:15;;;;;;;24.00;12.90;;;;;;;;;;5074118;28;20025;-68
2021/09/20 07:04:41;;;;;;;21.77;12.18;;;;;;;;;;5074178;28;20043;-66
2021/09/20 07:07:12;;;;;;;16.95;9.60;;;;;;;;;;5074254;28;20048;-66
2021/09/20 07:09:38;;;;;;;;;;;;;;;;;;5074398;28;20060;-63
2021/09/20 07:12:05;;;;;;;22.00;12.32;;;;;;;;;;5074284;28;19951;-65
2021/09/20 07:14:33;;;;;;;15.93;8.68;;;;;;;;;;5074394;28;20032;-66
2021/09/20 07:16:59;;;;;;;14.57;9.00;;;;;;;;;;5074237;28;20016;-66
2021/09/20 07:19:25;;;;;;;16.75;10.43;;;;;;;;;;5073499;28;20024;-63
2021/09/20 07:21:51;;;;;;;20.98;13.68;;;;;;;;;;5074003;28;20465;-66
2021/09/20 07:24:17;;;;;;;20.42;12.45;;;;;;;;;;5073736;28;20076;-67
2021/09/20 07:26:43;;;;;;;25.58;15.80;;;;;;;;;;5073990;28;20388;-64
2021/09/20 07:29:09;;;;;;;44.35;25.48;;;;;;;;;;5073957;28;20071;-67
2021/09/20 07:31:36;;;;;;;24.67;15.52;;;;;;;;;;5073719;28;20025;-65
2021/09/20 07:34:02;;;;;;;23.15;12.70;;;;;;;;;;5073693;28;20055;-67
2021/09/20 07:36:28;;;;;;;15.27;9.00;;;;;;;;;;5073452;28;20028;-61
2021/09/20 07:38:55;;;;;;;14.13;9.15;;;;;;;;;;5073365;28;20051;-66
2021/09/20 07:41:21;;;;;;;14.90;8.57;;;;;;;;;;5073674;28;20025;-65
2021/09/20 07:43:47;;;;;;;15.10;7.65;;;;;;;;;;5073695;28;20031;-65
2021/09/20 07:46:19;;;;;;;8.18;5.80;;;;;;;;;;5073629;28;20048;-63
2021/09/20 07:48:45;;;;;;;9.38;6.82;;;;;;;;;;5073675;28;20388;-65
2021/09/20 07:51:12;;;;;;;18.33;10.48;;;;;;;;;;5073620;28;20101;-62
2021/09/20 07:53:38;;;;;;;21.65;13.63;;;;;;;;;;5073456;28;20057;-68
2021/09/20 07:56:05;;;;;;;15.52;9.38;;;;;;;;;;5073475;28;20100;-68
2021/09/20 07:58:31;;;;;;;26.15;13.60;;;;;;;;;;5073624;28;20103;-66
2021/09/20 08:00:58;;;;;;;21.23;13.52;;;;;;;;;;5073433;28;20504;-67
2021/09/20 08:03:24;;;;;;;14.52;10.05;;;;;;;;;;5073209;28;20068;-67
2021/09/20 08:05:52;;;;;;;12.60;6.85;;;;;;;;;;5073256;28;20025;-64
2021/09/20 08:08:18;;;;;;;8.32;5.80;;;;;;;;;;5073181;28;20103;-67
2021/09/20 08:10:44;;;;;;;12.35;6.30;;;;;;;;;;5073449;28;20032;-68
2021/09/20 08:13:10;;;;;;;9.63;5.15;;;;;;;;;;5073498;28;20020;-66
2021/09/20 08:15:36;;;;;;;5.88;4.18;;;;;;;;;;5073396;28;20021;-68
2021/09/20 08:18:03;;;;;;;7.82;3.75;;;;;;;;;;5073247;28;20025;-68
2021/09/20 08:20:29;;;;;;;3.45;2.70;;;;;;;;;;5073440;28;20107;-67
2021/09/20 08:22:55;;;;;;;3.40;2.90;;;;;;;;;;5073111;28;20024;-64
2021/09/20 08:25:22;;;;;;;4.45;2.38;;;;;;;;;;5073326;28;20031;-68
2021/09/20 08:27:49;;;;;;;4.22;2.30;;;;;;;;;;5073055;28;20031;-64
2021/09/20 08:30:15;;;;;;;5.25;1.95;;;;;;;;;;5074077;28;20587;-66
2021/09/20 08:32:41;;;;;;;4.47;2.67;;;;;;;;;;5077140;28;20392;-65
2021/09/20 08:35:08;;;;;;;13.77;10.27;;;;;;;;;;5077072;28;20032;-66
2021/09/20 08:37:34;;;;;;;17.35;11.68;;;;;;;;;;5077070;28;20028;-68
2021/09/20 08:40:00;;;;;;;42.65;27.45;;;;;;;;;;5077029;28;20028;-65
2021/09/20 08:42:26;;;;;;;26.10;15.15;;;;;;;;;;5076985;28;20028;-59
2021/09/20 08:44:55;;;;;;;24.85;12.68;;;;;;;;;;5077078;28;20028;-67
2021/09/20 08:47:21;;;;;;;21.35;12.05;;;;;;;;;;5076902;28;20498;-64
2021/09/20 08:49:50;;;;;;;27.35;14.95;;;;;;;;;;5076843;28;20066;-68
2021/09/20 08:52:16;;;;;;;15.13;8.57;;;;;;;;;;5076778;28;20025;-68
2021/09/20 08:54:43;;;;;;;11.43;4.90;;;;;;;;;;5076807;28;20039;-48
2021/09/20 08:57:09;;;;;;;33.78;8.48;;;;;;;;;;5076592;28;20112;-57
2021/09/20 08:59:35;;;;;;;65.07;11.75;;;;;;;;;;5076783;28;20125;-59
2021/09/20 09:02:01;;;;;;;27.20;6.35;;;;;;;;;;5076677;28;20029;-56
2021/09/20 09:04:35;;;;;;;11.02;4.40;;;;;;;;;;5076573;28;20029;-58
2021/09/20 09:07:01;;;;;;;8.85;3.90;;;;;;;;;;5076395;28;20404;-57
2021/09/20 09:09:35;;;;;;;8.20;3.17;;;;;;;;;;5076432;28;20060;-57
2021/09/20 09:12:13;;;;;;;7.53;3.65;;;;;;;;;;5076693;28;20043;-56
2021/09/20 09:14:47;;;;;;;5.93;3.40;;;;;;;;;;5076685;28;20035;-59
2021/09/20 09:17:25;;;;;;;4.25;3.58;;;;;;;;;;5076408;28;20021;-59
2021/09/20 09:20:06;;;;;;;4.47;3.17;;;;;;;;;;5076491;28;20051;-53
2021/09/20 09:22:50;;;;;;;9.32;3.50;;;;;;;;;;5076191;28;20016;-58
2021/09/20 09:25:19;;;;;;;3.85;2.97;;;;;;;;;;5074932;28;20123;-58
2021/09/20 09:27:46;;;;;;;4.55;3.55;;;;;;;;;;5074886;28;20553;-56
2021/09/20 09:30:17;;;;;;;8.60;3.40;;;;;;;;;;5074908;28;20028;-56
2021/09/20 09:32:44;;;;;;;7.03;3.80;;;;;;;;;;5074868;28;20016;-58
2021/09/20 09:35:11;;;;;;;5.32;3.78;;;;;;;;;;5074960;28;20055;-56
2021/09/20 09:37:38;;;;;;;4.50;3.50;;;;;;;;;;5074828;28;20012;-55
2021/09/20 09:40:10;;;;;;;5.32;4.15;;;;;;;;;;5074781;28;20376;-56
2021/09/20 09:42:37;;;;;;;4.38;3.53;;;;;;;;;;5074528;28;20028;-55
2021/09/20 09:45:18;;;;;;;4.72;3.55;;;;;;;;;;5074710;28;20032;-57
2021/09/20 09:47:44;;;;;;;5.68;3.72;;;;;;;;;;5074795;28;20051;-59
2021/09/20 09:50:16;;;;;;;5.40;3.92;;;;;;;;;;5075096;28;20028;-58
2021/09/20 09:52:45;;;;;;;4.82;3.58;;;;;;;;;;5074766;28;20017;-59
2021/09/20 09:55:12;;;;;;;6.80;3.78;;;;;;;;;;5074627;28;20032;-58
2021/09/20 09:57:38;;;;;;;4.97;4.32;;;;;;;;;;5074541;28;20021;-55
2021/09/20 10:00:09;;;;;;;7.07;4.43;;;;;;;;;;5074551;28;20412;-47
2021/09/20 10:02:36;;;;;;;4.57;3.75;;;;;;;;;;5074602;28;20362;-48
2021/09/20 10:05:05;;;;;;;5.50;4.07;;;;;;;;;;5074746;28;20048;-56
2021/09/20 10:07:57;;;;;;;4.70;3.88;;;;;;;;;;5074479;28;20032;-59
2021/09/20 10:10:26;;;;;;;5.28;4.15;;;;;;;;;;5072480;28;20051;-60
2021/09/20 10:12:56;;;;;;;5.32;4.57;;;;;;;;;;5074620;28;20074;-52
2021/09/20 10:15:24;;;;;;;6.70;4.72;;;;;;;;;;5074571;28;20024;-57
2021/09/20 10:17:50;;;;;;;6.88;4.43;;;;;;;;;;5074302;28;20023;-59
2021/09/20 10:20:20;;;;;;;6.63;4.30;;;;;;;;;;5074310;28;20035;-58
2021/09/20 10:22:47;;;;;;;6.67;4.37;;;;;;;;;;5031843;28;1202826;-58
2021/09/20 10:25:16;;;;;;;6.43;4.40;;;;;;;;;;5075089;28;20028;-58
2021/09/20 10:27:43;;;;;;;6.57;4.97;;;;;;;;;;5075172;28;20020;-57
2021/09/20 10:30:11;;;;;;;5.90;4.40;;;;;;;;;;5075198;28;20036;-57
2021/09/20 10:32:41;;;;;;;8.90;5.70;;;;;;;;;;5074955;28;20026;-54
2021/09/20 10:35:26;;;;;;;9.43;5.30;;;;;;;;;;5074864;28;20021;-57
2021/09/20 10:37:53;;;;;;;7.50;4.90;;;;;;;;;;5074862;28;20060;-57
2021/09/20 10:40:20;;;;;;;6.40;4.75;;;;;;;;;;5074920;28;20022;-58
2021/09/20 10:42:47;;;;;;;7.30;5.43;;;;;;;;;;5075056;28;20059;-58
2021/09/20 10:45:32;;;;;;;6.82;4.60;;;;;;;;;;5074728;28;20020;-58
2021/09/20 10:48:02;;;;;;;6.07;5.00;;;;;;;;;;5074720;28;20039;-57
2021/09/20 10:50:47;;;;;;;7.97;4.93;;;;;;;;;;5074777;28;20028;-58
2021/09/20 10:53:22;;;;;;;8.75;5.18;;;;;;;;;;5074127;28;20020;-59
2021/09/20 10:56:03;;;;;;;7.53;4.93;;;;;;;;;;5074555;28;20393;-57
2021/09/20 10:58:30;;;;;;;9.15;4.40;;;;;;;;;;5074532;28;20103;-58
2021/09/20 11:01:11;;;;;;;5.90;5.00;;;;;;;;;;5074473;28;20028;-57
2021/09/20 11:03:42;;;;;;;5.88;4.45;;;;;;;;;;5074701;28;20020;-57
2021/09/20 11:06:17;;;;;;;8.60;5.15;;;;;;;;;;5074605;28;20036;-50
2021/09/20 11:08:44;;;;;;;13.93;8.07;;;;;;;;;;5074445;28;20055;-53
2021/09/20 11:11:28;;;;;;;9.82;6.20;;;;;;;;;;5074105;28;20025;-47
2021/09/20 11:14:01;;;;;;;9.48;7.03;;;;;;;;;;5074160;28;20028;-49
2021/09/20 11:16:46;;;;;;;14.38;9.57;;;;;;;;;;5074556;28;20051;-57
2021/09/20 11:19:33;;;;;;;8.40;5.65;;;;;;;;;;5074033;28;20021;-57
2021/09/20 11:24:37;;;;;;;11.15;5.25;;;;;;;;;;5073895;28;20108;-54
2021/09/20 11:27:04;;;;;;;7.22;4.13;;;;;;;;;;5073892;28;20039;-54
2021/09/20 11:29:31;;;;;;;5.47;4.40;;;;;;;;;;5073803;28;20040;-55
2021/09/20 11:31:58;;;;;;;7.50;4.97;;;;;;;;;;5073772;28;20397;-55
2021/09/20 11:34:37;;;;;;;11.18;6.70;;;;;;;;;;5073990;28;20024;-45
2021/09/20 11:37:13;;;;;;;6.55;4.30;;;;;;;;;;5074238;28;20064;-55
2021/09/20 11:39:48;;;;;;;6.57;4.22;;;;;;;;;;5073925;28;20172;-49
2021/09/20 11:42:15;;;;;;;5.90;4.18;;;;;;;;;;5073712;28;20029;-56
2021/09/20 11:44:50;;;;;;;6.55;4.90;;;;;;;;;;5073612;28;20029;-55
2021/09/20 11:47:18;;;;;;;7.35;4.30;;;;;;;;;;5073639;28;20028;-56
2021/09/20 11:49:46;;;;;;;5.05;3.95;;;;;;;;;;5073695;28;20047;-47
2021/09/20 11:52:13;;;;;;;4.95;3.75;;;;;;;;;;5073516;28;20118;-56
2021/09/20 11:54:44;;;;;;;4.78;3.70;;;;;;;;;;5073539;28;20020;-54
2021/09/20 11:57:14;;;;;;;6.57;4.05;;;;;;;;;;5073651;28;20024;-56
2021/09/20 11:59:43;;;;;;;4.90;3.87;;;;;;;;;;5073802;28;20027;-50
2021/09/20 12:02:09;;;;;;;5.82;3.13;;;;;;;;;;5072934;28;20644;-56
2021/09/20 12:04:50;;;;;;;5.07;3.15;;;;;;;;;;5073033;28;20116;-49
2021/09/20 12:07:26;;;;;;;16.75;9.68;;;;;;;;;;5062612;28;20083;-57
2021/09/20 12:09:54;;;;;;;27.45;18.63;;;;;;;;;;5050254;28;20124;-50
2021/09/20 12:12:20;;;;;;;124.78;75.97;;;;;;;;;;5052925;28;20021;-56
2021/09/20 12:14:56;;;;;;;132.20;79.43;;;;;;;;;;5052675;28;20052;-53
2021/09/20 12:17:25;;;;;;;110.28;69.78;;;;;;;;;;5052784;28;20019;-53
2021/09/20 12:19:55;;;;;;;39.13;25.83;;;;;;;;;;5049905;28;20025;-51
2021/09/20 12:22:21;;;;;;;95.72;65.85;;;;;;;;;;5052551;28;20067;-57
2021/09/20 12:24:47;;;;;;;41.78;20.02;;;;;;;;;;5052439;28;20102;-58
2021/09/20 12:27:13;;;;;;;18.65;9.98;;;;;;;;;;5052637;28;20017;-53
2021/09/20 12:29:39;;;;;;;35.55;24.13;;;;;;;;;;5052578;28;20082;-56
2021/09/20 12:32:08;;;;;;;17.23;9.80;;;;;;;;;;5052506;28;20076;-53
2021/09/20 12:34:34;;;;;;;7.53;4.90;;;;;;;;;;5052414;28;20024;-53
2021/09/20 12:37:03;;;;;;;11.82;7.97;;;;;;;;;;5052547;28;20049;-52
2021/09/20 12:39:32;;;;;;;9.55;5.63;;;;;;;;;;5052478;28;20036;-52
2021/09/20 12:42:05;;;;;;;14.25;9.00;;;;;;;;;;5052403;28;20013;-50
2021/09/20 12:44:46;;;;;;;7.97;5.40;;;;;;;;;;5049763;28;20029;-51
2021/09/20 12:47:14;;;;;;;15.90;9.60;;;;;;;;;;5049738;28;20021;-52
2021/09/20 12:49:41;;;;;;;15.98;8.45;;;;;;;;;;5052148;28;20037;-48
2021/09/20 12:52:25;;;;;;;12.85;6.45;;;;;;;;;;5052228;28;20017;-53
2021/09/20 12:54:51;;;;;;;10.65;6.13;;;;;;;;;;5049800;28;20036;-55
2021/09/20 12:57:18;;;;;;;8.88;5.85;;;;;;;;;;5052206;28;20094;-51
2021/09/20 12:59:44;;;;;;;17.02;10.23;;;;;;;;;;5052274;28;20381;-52
2021/09/20 13:02:17;;;;;;;28.60;18.52;;;;;;;;;;5052072;28;20017;-52
2021/09/20 13:04:45;;;;;;;24.20;14.35;;;;;;;;;;5051977;28;20516;-50
2021/09/20 13:07:13;;;;;;;84.35;47.08;;;;;;;;;;5051987;28;20400;-47
2021/09/20 13:09:53;;;;;;;33.88;22.02;;;;;;;;;;5052281;28;20116;-51
2021/09/20 13:12:19;;;;;;;60.42;36.83;;;;;;;;;;5050506;28;20428;-52
2021/09/20 13:14:56;;;;;;;39.58;22.35;;;;;;;;;;5052075;28;20530;-52
2021/09/20 13:17:32;;;;;;;29.80;16.92;;;;;;;;;;5053264;28;20013;-52
2021/09/20 13:20:29;;;;;;;44.45;24.48;;;;;;;;;;5053865;28;20465;-52
2021/09/20 13:23:00;;;;;;;22.15;11.73;;;;;;;;;;5033350;28;20481;-55
2021/09/20 13:25:37;;;;;;;42.13;23.93;;;;;;;;;;5033531;28;20093;-56
2021/09/20 13:28:10;;;;;;;31.05;18.50;;;;;;;;;;5029687;28;20159;-57
2021/09/20 13:30:38;;;;;;;46.40;27.30;;;;;;;;;;5033541;28;20033;-56
2021/09/20 13:33:04;;;;;;;21.27;13.73;;;;;;;;;;5033292;28;20034;-57
2021/09/20 13:35:33;;;;;;;26.23;14.05;;;;;;;;;;5033447;28;20049;-51
2021/09/20 13:38:00;;;;;;;74.10;37.95;;;;;;;;;;5033220;28;20529;-57
2021/09/20 13:40:26;;;;;;;141.75;76.28;;;;;;;;;;5033213;28;20037;-53
2021/09/20 13:42:55;;;;;;;49.10;28.48;;;;;;;;;;5030689;28;20025;-52
2021/09/20 13:45:21;;;;;;;39.20;22.13;;;;;;;;;;5033191;28;20068;-51
2021/09/20 13:47:48;;;;;;;56.55;30.83;;;;;;;;;;5032945;28;20029;-54
2021/09/20 13:50:14;;;;;;;76.80;46.65;;;;;;;;;;5032977;28;20029;-52
2021/09/20 13:52:40;;;;;;;43.53;25.95;;;;;;;;;;5033001;28;20063;-50
2021/09/20 13:55:08;;;;;;;54.78;32.00;;;;;;;;;;5033047;28;20071;-56
2021/09/20 13:57:34;;;;;;;65.45;39.42;;;;;;;;;;5033027;28;20032;-50
2021/09/20 14:00:00;;;;;;;143.73;79.63;;;;;;;;;;5049996;28;20125;-55
2021/09/20 14:02:26;;;;;;;112.75;64.63;;;;;;;;;;5055464;28;20104;-54
2021/09/20 14:04:53;;;;;;;109.28;63.90;;;;;;;;;;5055373;28;20033;-54
2021/09/20 14:07:21;;;;;;;56.13;31.77;;;;;;;;;;5055327;28;20033;-53
2021/09/20 14:09:47;;;;;;;33.03;18.98;;;;;;;;;;5055195;28;20064;-49
2021/09/20 14:12:13;;;;;;;38.30;22.55;;;;;;;;;;5055355;28;20021;-49
2021/09/20 14:14:39;;;;;;;38.00;22.67;;;;;;;;;;5055333;28;20469;-55
2021/09/20 14:17:05;;;;;;;26.67;16.90;;;;;;;;;;5055301;28;20036;-53
2021/09/20 14:19:31;;;;;;;38.30;25.05;;;;;;;;;;5055041;28;20025;-51
2021/09/20 14:21:58;;;;;;;29.40;15.73;;;;;;;;;;5055157;28;20060;-53
2021/09/20 14:24:24;;;;;;;48.80;26.35;;;;;;;;;;5054928;28;20053;-50
2021/09/20 14:26:50;;;;;;;45.42;24.77;;;;;;;;;;5055200;28;20432;-54
2021/09/20 14:29:16;;;;;;;37.72;23.02;;;;;;;;;;5053880;28;20033;-55
2021/09/20 14:31:42;;;;;;;22.92;13.57;;;;;;;;;;5054876;28;20028;-49
2021/09/20 14:34:09;;;;;;;34.80;20.48;;;;;;;;;;5054825;28;20032;-48
2021/09/20 14:36:36;;;;;;;78.30;37.75;;;;;;;;;;5054917;28;20021;-51
2021/09/20 14:39:05;;;;;;;30.45;16.10;;;;;;;;;;5054256;28;20033;-51
2021/09/20 14:41:31;;;;;;;61.25;29.90;;;;;;;;;;5054863;28;20035;-51